Time;durP1;ratioP1;P1;durP2;ratioP2;P2;SDS_P1;SDS_P2;PMS_P1;PMS_P2;Temp;Humidity;BMP_temperature;BMP_pressure;BME280_temperature;BME280_humidity;BME280_pressure;Samples;Min_cycle;Max_cycle;Signal;HPM_P1;HPM_P2
2021/01/07 00:01:22;;;;;;;7.53;3.90;;;2.50;90.80;;;;;;5011710;28;20054;-82
2021/01/07 00:03:50;;;;;;;11.40;4.93;;;2.40;90.80;;;;;;5013470;28;20123;-84
2021/01/07 00:06:17;;;;;;;11.68;5.90;;;2.40;91.00;;;;;;4995248;28;20053;-81
2021/01/07 00:08:44;;;;;;;9.85;3.65;;;2.40;90.90;;;;;;5013557;28;20103;-85
2021/01/07 00:11:12;;;;;;;12.13;3.65;;;2.50;90.60;;;;;;5016837;28;20088;-84
2021/01/07 00:13:40;;;;;;;8.40;3.58;;;2.50;90.50;;;;;;5015814;28;20096;-82
2021/01/07 00:16:07;;;;;;;10.43;4.05;;;2.40;90.60;;;;;;5020088;28;20085;-83
2021/01/07 00:18:35;;;;;;;11.35;5.07;;;2.50;90.50;;;;;;5017148;28;20053;-82
2021/01/07 00:21:03;;;;;;;10.20;5.13;;;2.40;90.60;;;;;;5015179;28;20050;-82
2021/01/07 00:23:31;;;;;;;11.02;4.13;;;2.40;90.80;;;;;;5018232;28;20100;-82
2021/01/07 00:25:58;;;;;;;10.88;4.13;;;2.40;91.00;;;;;;5001641;28;20376;-83
2021/01/07 00:28:25;;;;;;;8.63;5.18;;;2.30;91.00;;;;;;5016383;28;20399;-84
2021/01/07 00:30:53;;;;;;;12.43;5.53;;;2.40;91.00;;;;;;5012982;28;20288;-85
2021/01/07 00:33:20;;;;;;;10.98;4.75;;;2.40;90.20;;;;;;5008367;28;20057;-81
2021/01/07 00:36:00;;;;;;;11.23;4.25;;;2.30;90.90;;;;;;5000902;28;20345;-82
2021/01/07 00:38:27;;;;;;;10.07;3.95;;;2.30;90.30;;;;;;5016477;28;20253;-83
2021/01/07 00:40:54;;;;;;;10.65;4.47;;;2.40;90.50;;;;;;5013252;28;20053;-83
2021/01/07 00:43:21;;;;;;;12.07;5.43;;;2.30;90.20;;;;;;4999913;28;20432;-82
2021/01/07 00:45:49;;;;;;;10.07;4.10;;;2.30;90.20;;;;;;5014951;28;20046;-84
2021/01/07 00:48:17;;;;;;;11.43;5.15;;;2.40;89.80;;;;;;4988439;28;20073;-83
2021/01/07 00:50:45;;;;;;;12.68;5.05;;;2.40;89.60;;;;;;5003748;28;20301;-83
2021/01/07 00:53:12;;;;;;;11.82;5.70;;;2.30;89.90;;;;;;4999616;28;20062;-82
2021/01/07 00:55:40;;;;;;;11.48;4.85;;;2.30;90.00;;;;;;5018307;28;20231;-81
2021/01/07 00:58:09;;;;;;;15.23;5.45;;;2.20;90.20;;;;;;5004486;28;20120;-82
2021/01/07 01:00:37;;;;;;;13.68;5.28;;;2.30;90.40;;;;;;5000700;28;20269;-83
2021/01/07 01:03:05;;;;;;;9.50;4.55;;;2.20;90.20;;;;;;5014447;28;20054;-81
2021/01/07 01:05:32;;;;;;;13.15;4.57;;;2.30;90.20;;;;;;5015754;28;20205;-84
2021/01/07 01:07:59;;;;;;;10.77;5.32;;;2.30;90.40;;;;;;5011113;28;20353;-81
2021/01/07 01:10:27;;;;;;;11.93;4.68;;;2.20;90.40;;;;;;5021211;28;20283;-83
2021/01/07 01:12:55;;;;;;;10.25;4.53;;;2.20;90.80;;;;;;5015729;28;20121;-83
2021/01/07 01:15:21;;;;;;;11.60;4.93;;;2.20;90.90;;;;;;5018265;28;20080;-82
2021/01/07 01:17:48;;;;;;;17.33;5.82;;;2.20;90.90;;;;;;5021276;28;20217;-84
2021/01/07 01:20:15;;;;;;;14.48;6.63;;;2.20;90.80;;;;;;5020375;28;20096;-84
2021/01/07 01:22:44;;;;;;;12.70;5.55;;;2.10;91.00;;;;;;5019423;28;20050;-82
2021/01/07 01:25:13;;;;;;;13.52;5.22;;;2.20;90.90;;;;;;5003906;28;20060;-84
2021/01/07 01:27:43;;;;;;;15.73;6.57;;;2.20;90.20;;;;;;5001001;28;20126;-84
2021/01/07 01:30:12;;;;;;;11.45;4.18;;;2.10;90.40;;;;;;5017828;28;20062;-83
2021/01/07 01:32:42;;;;;;;15.18;5.03;;;2.10;90.60;;;;;;5012764;28;20049;-86
2021/01/07 01:35:09;;;;;;;14.70;5.85;;;2.00;90.70;;;;;;5014812;28;20237;-81
2021/01/07 01:37:37;;;;;;;12.70;5.47;;;2.10;90.50;;;;;;5015826;28;20121;-82
2021/01/07 01:40:07;;;;;;;18.02;6.97;;;2.10;90.60;;;;;;5016993;28;20062;-85
2021/01/07 01:42:34;;;;;;;17.67;7.00;;;2.10;90.60;;;;;;5005261;28;20057;-85
2021/01/07 01:45:01;;;;;;;13.55;5.68;;;2.10;90.50;;;;;;5012558;28;20042;-86
2021/01/07 01:47:28;;;;;;;15.32;6.65;;;2.20;90.10;;;;;;5010925;28;20066;-83
2021/01/07 01:49:55;;;;;;;15.93;6.82;;;2.10;90.10;;;;;;5009573;28;20062;-81
2021/01/07 01:52:25;;;;;;;10.93;5.25;;;2.00;90.10;;;;;;5016913;28;20053;-81
2021/01/07 01:54:52;;;;;;;17.02;6.70;;;2.00;90.50;;;;;;5018509;28;20046;-81
2021/01/07 01:57:20;;;;;;;12.43;5.45;;;2.00;90.50;;;;;;5012503;28;20046;-83
2021/01/07 01:59:47;;;;;;;15.63;7.05;;;2.10;89.90;;;;;;5014912;28;20057;-82
2021/01/07 02:02:15;;;;;;;13.63;5.30;;;2.00;89.30;;;;;;5013118;28;20103;-82
2021/01/07 02:04:42;;;;;;;15.88;6.22;;;2.00;89.80;;;;;;5001793;28;20330;-82
2021/01/07 02:07:11;;;;;;;14.55;6.35;;;2.00;89.60;;;;;;5012258;28;20348;-81
2021/01/07 02:09:43;;;;;;;12.10;5.43;;;2.00;89.80;;;;;;5008720;28;20058;-82
2021/01/07 02:12:10;;;;;;;14.55;6.05;;;2.00;89.40;;;;;;5006288;28;20061;-81
2021/01/07 02:14:41;;;;;;;14.90;5.68;;;2.00;89.40;;;;;;5010492;28;20084;-82
2021/01/07 02:17:08;;;;;;;15.20;7.47;;;1.90;89.50;;;;;;5013246;28;20399;-81
2021/01/07 02:19:57;;;;;;;11.83;4.37;;;1.90;89.90;;;;;;1883452;28;10022989;-81
2021/01/07 02:22:25;;;;;;;13.50;5.47;;;1.80;90.20;;;;;;4019429;28;10001146;-81
2021/01/07 02:24:53;;;;;;;14.95;5.85;;;1.80;90.20;;;;;;5055715;28;20363;-81
2021/01/07 02:27:20;;;;;;;14.93;6.03;;;1.90;89.90;;;;;;5055394;28;20037;-83
2021/01/07 02:29:46;;;;;;;14.38;5.35;;;1.90;89.90;;;;;;5055499;28;20067;-84
2021/01/07 02:32:15;;;;;;;18.90;7.53;;;1.90;90.10;;;;;;5051872;28;20057;-85
2021/01/07 02:34:42;;;;;;;12.75;6.43;;;1.90;90.20;;;;;;5055759;28;20061;-86
2021/01/07 02:37:12;;;;;;;13.07;6.28;;;1.80;90.10;;;;;;5041311;28;20332;-82
2021/01/07 02:39:39;;;;;;;14.73;6.83;;;1.80;90.40;;;;;;5039620;28;21840;-83
2021/01/07 02:42:06;;;;;;;14.30;6.63;;;1.80;90.30;;;;;;5038710;28;20358;-86
2021/01/07 02:44:32;;;;;;;14.32;6.45;;;1.70;90.10;;;;;;5031971;28;20194;-86
2021/01/07 02:46:59;;;;;;;16.63;6.82;;;1.70;90.50;;;;;;5056668;28;20053;-85
2021/01/07 02:49:27;;;;;;;19.48;7.32;;;1.80;90.40;;;;;;5060474;28;20058;-84
2021/01/07 02:51:54;;;;;;;18.08;6.50;;;1.70;90.60;;;;;;5069235;28;20049;-84
2021/01/07 02:54:25;;;;;;;19.85;6.47;;;1.70;90.50;;;;;;5056600;28;20053;-83
2021/01/07 02:56:52;;;;;;;14.05;5.50;;;1.80;90.10;;;;;;5056661;28;20099;-82
2021/01/07 02:59:19;;;;;;;15.23;6.97;;;1.80;89.90;;;;;;5057483;28;20279;-83
2021/01/07 03:01:46;;;;;;;13.75;6.38;;;1.70;90.20;;;;;;5034362;28;20379;-84
2021/01/07 03:04:13;;;;;;;13.32;6.03;;;1.80;90.30;;;;;;5044231;28;20061;-86
2021/01/07 03:06:40;;;;;;;15.65;5.75;;;1.70;90.40;;;;;;5054575;28;20253;-83
2021/01/07 03:09:07;;;;;;;19.70;7.82;;;1.70;90.30;;;;;;5055793;28;20355;-83
2021/01/07 03:11:35;;;;;;;17.55;6.32;;;1.70;90.30;;;;;;5044941;28;20056;-83
2021/01/07 03:14:03;;;;;;;12.43;6.43;;;1.70;90.80;;;;;;5045854;28;20058;-83
2021/01/07 03:16:34;;;;;;;13.52;5.18;;;1.70;90.60;;;;;;5052255;28;20272;-84
2021/01/07 03:19:03;;;;;;;15.88;6.53;;;1.80;90.20;;;;;;5047489;28;20064;-84
2021/01/07 03:21:29;;;;;;;17.27;7.57;;;1.80;90.20;;;;;;5041619;28;20056;-83
2021/01/07 03:23:56;;;;;;;15.90;7.70;;;1.70;90.20;;;;;;5044952;28;20232;-86
2021/01/07 03:26:23;;;;;;;13.32;6.35;;;1.70;90.10;;;;;;5044464;28;20244;-86
2021/01/07 03:28:50;;;;;;;17.38;6.75;;;1.80;89.40;;;;;;5048229;28;20056;-86
2021/01/07 03:31:17;;;;;;;12.85;6.20;;;1.80;89.30;;;;;;5046272;28;20116;-85
2021/01/07 03:33:45;;;;;;;14.77;5.75;;;1.80;89.20;;;;;;5032854;28;20490;-84
2021/01/07 03:36:12;;;;;;;15.57;7.25;;;1.80;89.20;;;;;;5047324;28;20040;-84
2021/01/07 03:38:39;;;;;;;17.63;7.22;;;1.80;89.20;;;;;;5046197;28;20185;-84
2021/01/07 03:41:06;;;;;;;14.93;6.20;;;1.70;89.50;;;;;;5046541;28;20081;-82
2021/01/07 03:43:32;;;;;;;17.05;7.15;;;1.70;89.70;;;;;;5056853;28;20061;-83
2021/01/07 03:46:00;;;;;;;18.08;6.55;;;1.80;89.30;;;;;;5041506;28;20062;-84
2021/01/07 03:48:28;;;;;;;15.40;5.88;;;1.70;89.00;;;;;;5053712;28;20372;-82
2021/01/07 03:50:55;;;;;;;14.13;6.30;;;1.70;89.30;;;;;;5052726;28;20049;-83
2021/01/07 03:53:22;;;;;;;17.13;6.80;;;1.80;89.40;;;;;;5064866;28;20131;-81
2021/01/07 03:55:49;;;;;;;15.32;7.25;;;1.70;89.40;;;;;;5050334;28;20059;-83
2021/01/07 03:58:16;;;;;;;15.45;7.25;;;1.70;89.20;;;;;;5050703;28;20053;-81
2021/01/07 04:00:44;;;;;;;14.20;5.50;;;1.70;89.40;;;;;;5051854;28;20095;-85
2021/01/07 04:03:12;;;;;;;11.35;5.10;;;1.70;89.70;;;;;;5035396;28;20057;-85
2021/01/07 04:05:39;;;;;;;16.02;5.78;;;1.70;88.90;;;;;;5055821;28;20040;-86
2021/01/07 04:08:12;;;;;;;16.30;6.53;;;1.70;88.60;;;;;;5050847;28;20107;-86
2021/01/07 04:10:41;;;;;;;16.00;6.55;;;1.70;88.60;;;;;;5060343;28;20143;-84
2021/01/07 04:13:08;;;;;;;15.98;5.63;;;1.60;89.10;;;;;;5050036;28;20264;-84
2021/01/07 04:15:35;;;;;;;12.68;6.28;;;1.70;88.90;;;;;;5053982;28;20044;-85
2021/01/07 04:18:01;;;;;;;14.18;5.90;;;1.80;88.60;;;;;;5063019;28;20075;-84
2021/01/07 04:20:29;;;;;;;12.23;4.53;;;1.70;88.70;;;;;;5033515;28;20124;-85
2021/01/07 04:22:57;;;;;;;12.18;5.60;;;1.70;88.50;;;;;;5050468;28;20375;-85
2021/01/07 04:25:24;;;;;;;17.38;6.78;;;1.70;88.70;;;;;;5048989;28;20284;-84
2021/01/07 04:27:51;;;;;;;16.70;7.82;;;1.70;88.40;;;;;;5047719;28;20053;-84
2021/01/07 04:30:20;;;;;;;16.08;7.13;;;1.70;88.80;;;;;;5036208;28;20067;-85
2021/01/07 04:32:47;;;;;;;14.20;5.97;;;1.70;88.60;;;;;;5050849;28;20056;-84
2021/01/07 04:35:15;;;;;;;13.63;5.90;;;1.70;88.70;;;;;;5033914;28;20049;-83
2021/01/07 04:37:43;;;;;;;15.15;7.05;;;1.70;88.20;;;;;;5029731;28;20044;-88
2021/01/07 04:40:10;;;;;;;13.30;5.53;;;1.70;88.20;;;;;;5053849;28;20115;-83
2021/01/07 04:42:37;;;;;;;14.15;5.97;;;1.60;88.40;;;;;;5054033;28;20091;-84
2021/01/07 04:45:06;;;;;;;18.55;6.05;;;1.60;88.70;;;;;;5050594;28;20320;-84
2021/01/07 04:47:33;;;;;;;15.00;5.55;;;1.70;88.90;;;;;;5049915;28;20060;-84
2021/01/07 04:50:01;;;;;;;13.55;6.00;;;1.70;88.30;;;;;;5068051;28;20257;-84
2021/01/07 04:52:28;;;;;;;18.85;6.90;;;1.70;88.50;;;;;;5049913;28;20068;-82
2021/01/07 04:54:56;;;;;;;12.05;5.45;;;1.70;88.60;;;;;;5051289;28;20105;-84
2021/01/07 04:57:23;;;;;;;13.02;5.40;;;1.70;88.60;;;;;;5053934;28;20078;-84
2021/01/07 04:59:50;;;;;;;13.98;6.70;;;1.70;88.00;;;;;;5028455;28;21208;-84
2021/01/07 05:02:17;;;;;;;14.98;6.15;;;1.60;88.70;;;;;;5053017;28;20056;-85
2021/01/07 05:04:53;;;;;;;13.15;5.57;;;1.60;88.60;;;;;;5039827;28;20049;-87
2021/01/07 05:07:22;;;;;;;11.02;5.05;;;1.60;88.70;;;;;;5063506;28;20367;-83
2021/01/07 05:10:02;;;;;;;15.57;6.40;;;1.60;88.60;;;;;;5060042;28;20059;-83
2021/01/07 05:12:31;;;;;;;13.48;4.38;;;1.60;88.30;;;;;;5053903;28;20295;-87
2021/01/07 05:14:58;;;;;;;17.98;5.07;;;1.50;88.50;;;;;;5062185;28;20123;-88
2021/01/07 05:17:26;;;;;;;18.85;5.07;;;1.50;88.70;;;;;;5048224;28;20065;-84
2021/01/07 05:19:53;;;;;;;9.13;4.15;;;1.50;88.20;;;;;;5046018;28;20063;-83
2021/01/07 05:22:19;;;;;;;10.70;4.43;;;1.60;88.50;;;;;;5061869;28;20059;-87
2021/01/07 05:24:51;;;;;;;10.18;4.35;;;1.70;88.20;;;;;;5036513;28;20061;-84
2021/01/07 05:27:22;;;;;;;13.15;5.10;;;1.70;87.80;;;;;;5048471;28;20185;-83
2021/01/07 05:29:49;;;;;;;11.82;4.65;;;1.60;88.10;;;;;;5049145;28;20056;-84
2021/01/07 05:32:32;;;;;;;12.00;4.20;;;1.60;87.80;;;;;;5047792;28;20079;-83
2021/01/07 05:34:59;;;;;;;7.68;3.97;;;1.60;87.60;;;;;;5050330;28;20045;-86
2021/01/07 05:37:26;;;;;;;9.95;4.88;;;1.60;87.90;;;;;;5052136;28;20222;-85
2021/01/07 05:39:54;;;;;;;11.88;5.13;;;1.60;87.80;;;;;;5051230;28;20271;-84
2021/01/07 05:42:22;;;;;;;9.80;3.80;;;1.60;88.00;;;;;;5048398;28;20120;-83
2021/01/07 05:44:49;;;;;;;11.55;4.43;;;1.60;87.90;;;;;;5058981;28;20052;-87
2021/01/07 05:47:27;;;;;;;8.20;4.00;;;1.50;87.90;;;;;;5051624;28;20446;-85
2021/01/07 05:49:55;;;;;;;13.45;5.13;;;1.60;87.70;;;;;;5048719;28;20053;-86
2021/01/07 05:52:29;;;;;;;10.63;4.75;;;1.50;87.80;;;;;;5036065;28;20390;-83
2021/01/07 05:54:58;;;;;;;8.70;4.25;;;1.50;87.90;;;;;;5066969;28;20119;-84
2021/01/07 05:57:28;;;;;;;11.35;4.20;;;1.40;88.10;;;;;;5034829;28;20049;-85
2021/01/07 05:59:57;;;;;;;14.88;4.53;;;1.50;87.90;;;;;;5067880;28;20125;-86
2021/01/07 06:02:24;;;;;;;11.63;4.38;;;1.50;88.10;;;;;;5052541;28;20084;-83
2021/01/07 06:04:53;;;;;;;10.48;5.03;;;1.50;88.00;;;;;;5047984;28;20627;-82
2021/01/07 06:07:20;;;;;;;10.18;5.00;;;1.50;88.40;;;;;;5052434;28;20048;-83
2021/01/07 06:09:48;;;;;;;11.32;5.28;;;1.50;88.40;;;;;;5050438;28;20071;-84
2021/01/07 06:12:18;;;;;;;10.52;3.45;;;1.50;88.40;;;;;;5054863;28;20291;-85
2021/01/07 06:14:46;;;;;;;13.55;4.57;;;1.50;88.50;;;;;;5052960;28;20064;-86
2021/01/07 06:17:13;;;;;;;16.55;5.43;;;1.40;88.40;;;;;;5048660;28;20516;-86
2021/01/07 06:19:44;;;;;;;13.40;4.80;;;1.60;88.60;;;;;;5052403;28;20063;-83
2021/01/07 06:22:13;;;;;;;;;;;1.70;88.10;;;;;;5050535;28;20040;-84
2021/01/07 06:24:41;;;;;;;8.10;3.83;;;1.50;88.20;;;;;;5049120;28;20128;-85
2021/01/07 06:27:26;;;;;;;10.07;4.97;;;1.50;88.60;;;;;;5046082;28;20232;-85
2021/01/07 06:30:29;;;;;;;10.15;4.85;;;1.50;88.40;;;;;;5048289;28;20048;-81
2021/01/07 06:33:08;;;;;;;9.80;4.25;;;1.50;88.80;;;;;;5035216;28;20091;-86
2021/01/07 06:35:38;;;;;;;10.75;5.43;;;1.60;88.50;;;;;;5045967;28;20073;-85
2021/01/07 06:38:05;;;;;;;9.75;4.20;;;1.60;88.20;;;;;;5031975;28;20505;-84
2021/01/07 06:40:43;;;;;;;12.90;4.53;;;1.60;88.50;;;;;;5044278;28;20056;-84
2021/01/07 06:43:17;;;;;;;11.68;4.40;;;1.60;88.10;;;;;;5030115;28;20613;-87
2021/01/07 06:45:52;;;;;;;9.13;4.00;;;1.70;88.20;;;;;;5033982;28;20053;-85
2021/01/07 06:48:31;;;;;;;9.63;4.10;;;1.70;88.00;;;;;;5048506;28;20056;-83
2021/01/07 06:51:00;;;;;;;9.30;4.22;;;1.60;88.00;;;;;;5056815;28;20356;-84
2021/01/07 06:53:27;;;;;;;12.75;4.70;;;1.70;88.40;;;;;;5048137;28;20080;-84
2021/01/07 06:56:16;;;;;;;11.52;4.88;;;1.70;88.00;;;;;;5055060;28;20237;-84
2021/01/07 06:58:44;;;;;;;12.38;4.70;;;1.70;88.10;;;;;;5023989;28;20063;-83
2021/01/07 07:01:23;;;;;;;14.25;5.63;;;1.70;88.40;;;;;;5048865;28;20111;-84
2021/01/07 07:03:53;;;;;;;18.23;6.85;;;1.60;88.50;;;;;;5032224;28;20075;-85
2021/01/07 07:06:26;;;;;;;20.42;7.95;;;1.70;88.30;;;;;;5030598;28;20535;-86
2021/01/07 07:08:53;;;;;;;19.38;6.18;;;1.70;88.90;;;;;;5052236;28;20056;-85
2021/01/07 07:11:32;;;;;;;17.48;7.43;;;1.60;88.80;;;;;;5063288;28;20053;-88
2021/01/07 07:14:02;;;;;;;19.35;8.23;;;1.60;89.00;;;;;;5047321;28;20215;-85
2021/01/07 07:16:34;;;;;;;19.25;7.03;;;1.70;88.80;;;;;;5046149;28;20067;-84
2021/01/07 07:19:01;;;;;;;16.55;7.07;;;1.70;89.00;;;;;;5045416;28;20057;-81
2021/01/07 07:21:30;;;;;;;14.48;7.78;;;1.60;89.40;;;;;;5049840;28;20099;-85
2021/01/07 07:24:08;;;;;;;14.38;6.80;;;1.70;89.30;;;;;;5048121;28;20301;-83
2021/01/07 07:26:38;;;;;;;16.27;7.22;;;1.60;89.70;;;;;;5052351;28;20088;-84
2021/01/07 07:29:09;;;;;;;15.43;6.95;;;1.60;89.60;;;;;;5049634;28;20116;-85
2021/01/07 07:31:44;;;;;;;17.95;7.13;;;1.70;89.50;;;;;;5050263;28;20322;-83
2021/01/07 07:34:12;;;;;;;14.15;6.22;;;1.70;89.70;;;;;;5031272;28;20135;-86
2021/01/07 07:36:39;;;;;;;15.90;7.47;;;1.70;89.60;;;;;;5056959;28;20496;-85
2021/01/07 07:39:08;;;;;;;19.92;7.60;;;1.60;89.90;;;;;;5036507;28;20068;-83
2021/01/07 07:41:43;;;;;;;18.13;7.57;;;1.70;90.00;;;;;;5049531;28;20053;-85
2021/01/07 07:44:14;;;;;;;21.63;8.43;;;1.60;89.90;;;;;;5029821;28;20163;-83
2021/01/07 07:46:44;;;;;;;15.20;6.95;;;1.60;90.10;;;;;;5034652;28;20055;-83
2021/01/07 07:49:11;;;;;;;14.70;5.65;;;1.60;90.20;;;;;;5049926;28;20130;-84
2021/01/07 07:51:38;;;;;;;22.27;8.45;;;1.70;90.00;;;;;;5049720;28;20129;-86
2021/01/07 07:54:10;;;;;;;19.65;7.40;;;1.70;89.80;;;;;;5048808;28;20052;-86
2021/01/07 07:56:37;;;;;;;15.88;6.40;;;1.70;89.50;;;;;;5051552;28;20041;-84
2021/01/07 07:59:05;;;;;;;16.25;6.68;;;1.70;89.70;;;;;;5049851;28;20056;-84
2021/01/07 08:01:44;;;;;;;14.90;6.10;;;1.60;90.20;;;;;;5045760;28;20166;-85
2021/01/07 08:04:16;;;;;;;17.73;8.07;;;1.70;90.00;;;;;;5047776;28;20060;-85
2021/01/07 08:06:44;;;;;;;16.70;7.07;;;1.70;90.00;;;;;;5047802;28;20067;-83
2021/01/07 08:09:12;;;;;;;21.38;9.63;;;1.70;89.80;;;;;;5046113;28;20060;-84
2021/01/07 08:11:50;;;;;;;17.60;7.57;;;1.70;89.70;;;;;;5036346;28;20133;-84
2021/01/07 08:14:21;;;;;;;17.10;7.68;;;1.70;89.60;;;;;;5047971;28;20467;-81
2021/01/07 08:16:53;;;;;;;18.33;7.57;;;1.70;89.60;;;;;;5025845;28;20045;-84
2021/01/07 08:19:22;;;;;;;14.48;7.03;;;1.70;89.80;;;;;;5031487;28;20236;-83
2021/01/07 08:21:51;;;;;;;16.90;7.10;;;1.70;89.20;;;;;;5061973;28;20060;-83
2021/01/07 08:24:20;;;;;;;20.85;6.25;;;1.70;89.70;;;;;;5032557;28;20071;-86
2021/01/07 08:27:08;;;;;;;18.25;8.05;;;1.60;90.10;;;;;;5049633;28;20108;-87
2021/01/07 08:29:37;;;;;;;17.55;6.85;;;1.70;90.10;;;;;;5048267;28;20102;-85
2021/01/07 08:32:11;;;;;;;14.52;6.47;;;1.70;89.80;;;;;;5051858;28;20041;-82
2021/01/07 08:34:39;;;;;;;17.25;7.88;;;1.90;88.90;;;;;;5065808;28;20044;-81
2021/01/07 08:37:10;;;;;;;15.38;6.07;;;1.80;89.20;;;;;;5055162;28;20056;-82
2021/01/07 08:39:41;;;;;;;19.73;8.85;;;1.80;89.00;;;;;;5027287;28;20105;-85
2021/01/07 08:42:08;;;;;;;17.60;7.43;;;1.80;89.50;;;;;;5049752;28;20340;-84
2021/01/07 08:44:35;;;;;;;16.10;7.32;;;2.00;88.80;;;;;;5042936;28;20056;-85
2021/01/07 08:47:19;;;;;;;16.98;8.07;;;1.90;88.80;;;;;;5040140;28;20059;-85
2021/01/07 08:49:46;;;;;;;18.25;8.07;;;1.90;88.50;;;;;;5052268;28;20497;-86
2021/01/07 08:52:13;;;;;;;15.32;7.68;;;1.90;88.90;;;;;;5051159;28;20064;-83
2021/01/07 08:54:40;;;;;;;16.67;6.50;;;1.90;89.00;;;;;;5049905;28;20060;-81
2021/01/07 08:57:12;;;;;;;15.77;7.68;;;1.90;89.10;;;;;;5034321;28;20044;-84
2021/01/07 08:59:40;;;;;;;13.98;6.78;;;2.00;88.90;;;;;;5048565;28;20053;-83
2021/01/07 09:02:19;;;;;;;21.63;7.20;;;2.10;89.00;;;;;;5050792;28;20056;-89
2021/01/07 09:04:49;;;;;;;21.20;7.05;;;2.20;89.40;;;;;;5049710;28;20063;-85
2021/01/07 09:07:21;;;;;;;20.10;7.03;;;2.10;88.60;;;;;;5048286;28;20057;-86
2021/01/07 09:09:49;;;;;;;18.17;7.78;;;2.00;89.10;;;;;;5036235;28;20049;-84
2021/01/07 09:12:22;;;;;;;17.08;7.10;;;2.10;89.10;;;;;;5049548;28;20057;-84
2021/01/07 09:14:54;;;;;;;20.40;7.40;;;2.00;88.80;;;;;;5050903;28;20924;-85
2021/01/07 09:17:23;;;;;;;15.38;6.78;;;2.10;89.00;;;;;;5033773;28;20092;-85
2021/01/07 09:19:52;;;;;;;16.52;6.85;;;2.10;88.50;;;;;;5049309;28;20072;-85
2021/01/07 09:22:24;;;;;;;17.35;7.80;;;2.10;88.50;;;;;;5052243;28;20056;-86
2021/01/07 09:24:53;;;;;;;21.73;9.43;;;2.20;88.50;;;;;;5059244;28;20083;-85
2021/01/07 09:27:22;;;;;;;15.38;7.38;;;2.20;88.90;;;;;;5032258;28;20059;-84
2021/01/07 09:29:51;;;;;;;21.70;8.57;;;2.20;88.50;;;;;;5049769;28;20117;-82
2021/01/07 09:32:18;;;;;;;15.45;6.95;;;2.30;88.10;;;;;;5049221;28;20115;-84
2021/01/07 09:34:46;;;;;;;19.90;7.45;;;2.30;87.60;;;;;;5034378;28;20069;-84
2021/01/07 09:37:15;;;;;;;17.80;7.05;;;2.30;87.60;;;;;;5036805;28;20053;-83
2021/01/07 09:39:46;;;;;;;24.27;7.95;;;2.30;87.90;;;;;;5049419;28;20116;-85
2021/01/07 09:42:13;;;;;;;16.10;7.82;;;2.30;87.70;;;;;;5045103;28;20056;-84
2021/01/07 09:44:40;;;;;;;16.92;7.20;;;2.30;87.80;;;;;;5046563;28;20064;-82
2021/01/07 09:47:09;;;;;;;17.33;7.32;;;2.30;87.30;;;;;;5034934;28;20040;-84
2021/01/07 09:49:36;;;;;;;17.90;6.78;;;2.30;87.60;;;;;;5049447;28;20087;-84
2021/01/07 09:52:05;;;;;;;18.00;7.45;;;2.20;88.00;;;;;;5052738;28;20056;-87
2021/01/07 09:54:32;;;;;;;15.48;7.10;;;2.20;87.90;;;;;;5066642;28;20336;-83
2021/01/07 09:57:00;;;;;;;16.13;7.45;;;2.30;87.50;;;;;;5054078;28;20203;-84
2021/01/07 09:59:30;;;;;;;17.13;7.13;;;2.30;87.30;;;;;;5046788;28;20049;-86
2021/01/07 10:01:59;;;;;;;14.77;7.05;;;2.20;88.30;;;;;;5049581;28;20061;-84
2021/01/07 10:04:26;;;;;;;20.88;8.73;;;2.20;87.80;;;;;;5052930;28;20322;-85
2021/01/07 10:06:53;;;;;;;14.60;7.65;;;2.20;87.90;;;;;;5036791;28;21193;-83
2021/01/07 10:09:22;;;;;;;19.42;8.52;;;2.20;88.00;;;;;;5031655;28;20079;-84
2021/01/07 10:11:50;;;;;;;20.63;7.43;;;2.10;88.30;;;;;;5058422;28;20095;-83
2021/01/07 10:14:17;;;;;;;17.27;7.10;;;2.20;88.10;;;;;;5037345;28;20079;-82
2021/01/07 10:16:48;;;;;;;16.15;7.53;;;2.20;88.20;;;;;;5050149;28;20543;-84
2021/01/07 10:19:15;;;;;;;14.55;6.25;;;2.20;88.00;;;;;;5054946;28;20100;-84
2021/01/07 10:21:46;;;;;;;17.80;8.00;;;2.30;88.40;;;;;;5054490;28;20304;-84
2021/01/07 10:24:14;;;;;;;;;;;2.30;88.20;;;;;;5030959;28;20734;-83
2021/01/07 10:26:43;;;;;;;18.35;6.95;;;2.30;88.20;;;;;;5047833;28;19924;-84
2021/01/07 10:29:11;;;;;;;19.25;7.88;;;2.20;88.30;;;;;;5048501;28;20068;-84
2021/01/07 10:31:37;;;;;;;16.50;5.88;;;2.10;89.00;;;;;;5048763;28;20049;-83
2021/01/07 10:34:10;;;;;;;16.52;6.65;;;2.10;89.30;;;;;;5048405;28;20063;-84
2021/01/07 10:36:41;;;;;;;17.83;7.25;;;2.10;89.30;;;;;;5045811;28;20052;-83
2021/01/07 10:39:08;;;;;;;18.10;6.07;;;2.20;88.90;;;;;;5046804;28;20048;-83
2021/01/07 10:41:36;;;;;;;18.27;6.40;;;2.30;88.50;;;;;;5034897;28;20060;-83
2021/01/07 10:44:07;;;;;;;22.13;7.60;;;2.30;88.90;;;;;;5031555;28;20053;-84
2021/01/07 10:46:37;;;;;;;17.20;7.15;;;2.30;88.70;;;;;;5049721;28;20041;-83
2021/01/07 10:49:04;;;;;;;19.15;6.38;;;2.30;88.50;;;;;;5038690;28;20056;-84
2021/01/07 10:51:40;;;;;;;14.40;6.10;;;2.30;89.10;;;;;;5050341;28;20072;-84
2021/01/07 10:54:11;;;;;;;19.23;7.22;;;2.30;88.70;;;;;;5050454;28;20287;-84
2021/01/07 10:57:03;;;;;;;16.70;6.70;;;2.40;89.00;;;;;;5047090;28;20503;-84
2021/01/07 10:59:53;;;;;;;14.98;6.20;;;2.50;88.20;;;;;;5048044;28;20053;-85
2021/01/07 11:02:52;;;;;;;16.25;7.43;;;2.40;88.50;;;;;;5056600;28;20052;-84
2021/01/07 11:05:22;;;;;;;20.27;6.10;;;2.60;88.20;;;;;;5054138;28;20091;-84
2021/01/07 11:08:14;;;;;;;17.67;7.43;;;2.40;87.80;;;;;;5057725;28;20065;-84
2021/01/07 11:10:44;;;;;;;18.67;6.75;;;2.60;87.80;;;;;;5054108;28;20038;-87
2021/01/07 11:13:15;;;;;;;15.63;5.85;;;2.60;87.80;;;;;;5057823;28;20040;-84
2021/01/07 11:15:45;;;;;;;15.90;6.05;;;2.70;87.30;;;;;;5064462;28;20053;-86
2021/01/07 11:18:14;;;;;;;16.00;6.72;;;2.70;86.70;;;;;;5057385;28;20340;-84
2021/01/07 11:20:44;;;;;;;14.95;6.32;;;2.70;86.70;;;;;;5056873;28;20148;-84
2021/01/07 11:23:11;;;;;;;16.53;6.70;;;2.70;86.90;;;;;;5057038;28;20053;-85
2021/01/07 11:25:39;;;;;;;14.77;6.35;;;2.80;86.60;;;;;;5061448;28;20272;-84
2021/01/07 11:28:06;;;;;;;13.52;5.45;;;2.70;86.70;;;;;;5046117;28;20275;-83
2021/01/07 11:30:33;;;;;;;15.48;6.72;;;2.70;85.70;;;;;;5058309;28;20060;-84
2021/01/07 11:33:03;;;;;;;13.43;5.85;;;2.70;85.70;;;;;;5057805;28;20076;-84
2021/01/07 11:35:30;;;;;;;16.58;6.10;;;2.70;86.90;;;;;;5073412;28;20226;-86
2021/01/07 11:38:03;;;;;;;15.13;7.25;;;2.80;86.50;;;;;;5038613;28;20329;-87
2021/01/07 11:40:37;;;;;;;13.02;5.05;;;2.90;85.90;;;;;;5043111;28;20064;-79
2021/01/07 11:43:52;;;;;;;18.92;6.03;;;3.00;85.50;;;;;;5056276;28;20669;-82
2021/01/07 11:46:20;;;;;;;13.02;6.35;;;3.00;85.20;;;;;;5047996;28;20057;-83
2021/01/07 11:48:58;;;;;;;14.70;6.63;;;3.20;85.40;;;;;;5050398;28;20076;-83
2021/01/07 11:51:25;;;;;;;14.30;6.55;;;3.20;85.60;;;;;;5052963;28;20057;-84
2021/01/07 11:53:57;;;;;;;14.05;6.00;;;3.20;84.80;;;;;;5046670;28;20116;-83
2021/01/07 11:56:25;;;;;;;20.40;7.07;;;2.90;85.30;;;;;;5045462;28;20037;-83
2021/01/07 11:58:53;;;;;;;12.65;6.13;;;2.90;85.30;;;;;;5049643;28;20300;-84
2021/01/07 12:01:22;;;;;;;19.75;6.75;;;2.80;85.60;;;;;;5054840;28;20048;-88
2021/01/07 12:03:50;;;;;;;14.82;5.63;;;2.80;85.50;;;;;;5046275;28;21176;-82
2021/01/07 12:06:22;;;;;;;16.05;6.60;;;3.10;84.80;;;;;;5047737;28;20084;-84
2021/01/07 12:08:57;;;;;;;14.50;6.88;;;2.90;85.20;;;;;;5035859;28;20356;-82
2021/01/07 12:11:32;;;;;;;14.02;6.32;;;2.90;85.70;;;;;;5049888;28;20072;-85
2021/01/07 12:14:10;;;;;;;14.30;5.22;;;3.00;85.40;;;;;;5060935;28;20052;-84
2021/01/07 12:16:44;;;;;;;13.27;5.47;;;3.00;84.70;;;;;;5049637;28;20280;-84
2021/01/07 12:19:14;;;;;;;17.33;7.03;;;2.90;84.70;;;;;;5059153;28;20057;-85
2021/01/07 12:21:54;;;;;;;15.88;7.18;;;3.00;85.30;;;;;;5035341;28;20052;-85
2021/01/07 12:24:24;;;;;;;10.88;5.28;;;2.90;84.10;;;;;;5041316;28;20332;-85
2021/01/07 12:26:53;;;;;;;18.05;6.15;;;2.90;84.30;;;;;;5065710;28;20055;-85
2021/01/07 12:29:22;;;;;;;16.88;6.80;;;2.80;84.60;;;;;;5044612;28;20114;-85
2021/01/07 12:31:50;;;;;;;12.18;4.18;;;2.90;84.30;;;;;;5063518;28;20056;-84
2021/01/07 12:34:38;;;;;;;12.98;4.97;;;2.90;83.90;;;;;;5059446;28;20048;-84
2021/01/07 12:37:08;;;;;;;10.93;4.45;;;3.00;83.90;;;;;;5047106;28;20407;-87
2021/01/07 12:39:43;;;;;;;15.98;4.97;;;2.90;83.30;;;;;;5055124;28;20048;-83
2021/01/07 12:42:16;;;;;;;12.85;5.72;;;3.00;84.00;;;;;;5055825;28;20072;-84
2021/01/07 12:44:48;;;;;;;14.43;5.93;;;3.10;83.30;;;;;;5065132;28;20064;-85
2021/01/07 12:47:15;;;;;;;12.15;4.70;;;3.10;83.10;;;;;;5053109;28;20053;-86
2021/01/07 12:49:47;;;;;;;13.15;5.15;;;3.10;83.00;;;;;;5062513;28;20263;-83
2021/01/07 12:52:16;;;;;;;13.77;5.28;;;3.00;83.10;;;;;;5043742;28;20045;-83
2021/01/07 12:54:43;;;;;;;13.38;5.43;;;3.00;83.30;;;;;;5058496;28;20397;-83
2021/01/07 12:57:13;;;;;;;13.43;6.75;;;2.90;83.40;;;;;;5038367;28;20065;-82
2021/01/07 12:59:50;;;;;;;11.48;4.15;;;3.10;83.10;;;;;;5060042;28;20155;-83
2021/01/07 13:02:32;;;;;;;11.65;4.55;;;3.00;82.90;;;;;;5056853;28;20056;-85